Mill Creek, West Virginia
Current Conditions -  °F | °C
As of 8:51 PM on Thursday 20 Nov 2014 (Local Time) from KEKN Reporting Station
Clear Clear  
Wind Chill: 17°   Ceiling: Unl
Heat Index: 25°   Visibility: 10mi
Dew Point: 16°   Wind: 7mph
Humidity: 69%   Direction: 280°W
Pressure: 30.08"   Gusts: NA
Location:  38.73°N, 79.97°W
Report Text: KEKN 210151Z AUTO 28006KT 10SM CLR M04/M09 A3008 RMK AO2 SLP212 T10391089 TSNO
Loading
Personal Weather Stations






























Interactive Weather Map New forecast layout! Learn more

10-Day Weather Forecast

Advertisements
Track Severe Weather on mobile